Terminal Aerodrome Forecast
Issued by NWS Sioux Falls, SD

Home | Current Version | Previous Version | Text Only | Print | Product List | Glossary On
Versions: 1 2 3 4 5 6 7 8 9 10 11 12
000
FTUS43 KFSD 062327
TAFSUX
TAF
KSUX 062327Z 0700/0724 23012KT P6SM FEW250
     FM070400 19006KT P6SM SCT100
     FM070800 08006KT P6SM SCT250
     FM071300 04012G18KT P6SM BKN120
     FM072100 07012KT P6SM SCT120=

USA.gov is the U.S. government's official web portal to all federal, state and local government web resources and services.